sensor_id;sensor_type;location;lat;lon;timestamp;pressure;altitude;pressure_sealevel;temperature;humidity
74708;BME280;63360;50.104;8.074;2023-03-04T00:00:26;97843.38;;;-1.42;100.00
74708;BME280;63360;50.104;8.074;2023-03-04T00:02:52;97846.63;;;-1.35;100.00
74708;BME280;63360;50.104;8.074;2023-03-04T00:05:19;97845.97;;;-1.30;100.00
74708;BME280;63360;50.104;8.074;2023-03-04T00:07:45;97847.28;;;-1.39;100.00
74708;BME280;63360;50.104;8.074;2023-03-04T00:10:12;97835.44;;;-1.52;100.00
74708;BME280;63360;50.104;8.074;2023-03-04T00:12:38;97843.09;;;-1.52;100.00
74708;BME280;63360;50.104;8.074;2023-03-04T00:15:05;97847.31;;;-1.46;100.00
74708;BME280;63360;50.104;8.074;2023-03-04T00:17:32;97843.97;;;-1.46;100.00
74708;BME280;63360;50.104;8.074;2023-03-04T00:19:58;97833.44;;;-1.50;100.00
74708;BME280;63360;50.104;8.074;2023-03-04T00:22:24;97848.91;;;-1.45;100.00
74708;BME280;63360;50.104;8.074;2023-03-04T00:24:51;97840.72;;;-1.53;100.00
74708;BME280;63360;50.104;8.074;2023-03-04T00:27:17;97842.16;;;-1.57;100.00
74708;BME280;63360;50.104;8.074;2023-03-04T00:29:43;97835.91;;;-1.61;100.00
74708;BME280;63360;50.104;8.074;2023-03-04T00:32:10;97837.25;;;-1.59;100.00
74708;BME280;63360;50.104;8.074;2023-03-04T00:34:36;97842.56;;;-1.60;100.00
74708;BME280;63360;50.104;8.074;2023-03-04T00:37:05;97825.59;;;-1.73;100.00
74708;BME280;63360;50.104;8.074;2023-03-04T00:39:32;97833.06;;;-1.53;100.00
74708;BME280;63360;50.104;8.074;2023-03-04T00:41:58;97841.78;;;-1.43;100.00
74708;BME280;63360;50.104;8.074;2023-03-04T00:44:24;97843.84;;;-1.51;100.00
74708;BME280;63360;50.104;8.074;2023-03-04T00:46:51;97834.50;;;-1.57;100.00
74708;BME280;63360;50.104;8.074;2023-03-04T00:49:17;97840.44;;;-1.45;100.00
74708;BME280;63360;50.104;8.074;2023-03-04T00:51:44;97839.66;;;-1.46;100.00
74708;BME280;63360;50.104;8.074;2023-03-04T00:54:10;97829.97;;;-1.55;100.00
74708;BME280;63360;50.104;8.074;2023-03-04T00:56:36;97834.16;;;-1.43;100.00
74708;BME280;63360;50.104;8.074;2023-03-04T00:59:03;97822.50;;;-1.57;100.00
74708;BME280;63360;50.104;8.074;2023-03-04T01:01:29;97836.81;;;-1.56;100.00
74708;BME280;63360;50.104;8.074;2023-03-04T01:03:56;97825.50;;;-1.60;100.00
74708;BME280;63360;50.104;8.074;2023-03-04T01:06:22;97819.88;;;-1.68;100.00
74708;BME280;63360;50.104;8.074;2023-03-04T01:08:49;97831.59;;;-1.61;100.00
74708;BME280;63360;50.104;8.074;2023-03-04T01:11:15;97823.00;;;-1.66;100.00
74708;BME280;63360;50.104;8.074;2023-03-04T01:13:41;97801.75;;;-1.78;100.00
74708;BME280;63360;50.104;8.074;2023-03-04T01:16:08;97821.78;;;-1.64;100.00
74708;BME280;63360;50.104;8.074;2023-03-04T01:18:36;97810.47;;;-1.68;100.00
74708;BME280;63360;50.104;8.074;2023-03-04T01:21:02;97819.13;;;-1.33;100.00
74708;BME280;63360;50.104;8.074;2023-03-04T01:23:29;97813.69;;;-1.36;100.00
74708;BME280;63360;50.104;8.074;2023-03-04T01:25:55;97819.41;;;-1.23;100.00
74708;BME280;63360;50.104;8.074;2023-03-04T01:28:22;97816.50;;;-1.08;100.00
74708;BME280;63360;50.104;8.074;2023-03-04T01:30:48;97809.09;;;-0.98;100.00
74708;BME280;63360;50.104;8.074;2023-03-04T01:33:15;97811.53;;;-0.73;100.00
74708;BME280;63360;50.104;8.074;2023-03-04T01:35:41;97808.94;;;-0.55;100.00
74708;BME280;63360;50.104;8.074;2023-03-04T01:38:08;97797.13;;;-0.68;100.00
74708;BME280;63360;50.104;8.074;2023-03-04T01:40:34;97804.13;;;-0.63;100.00
74708;BME280;63360;50.104;8.074;2023-03-04T01:43:01;97794.09;;;-0.76;100.00
74708;BME280;63360;50.104;8.074;2023-03-04T01:45:29;97790.38;;;-0.62;100.00
74708;BME280;63360;50.104;8.074;2023-03-04T01:47:56;97788.53;;;-0.43;100.00
74708;BME280;63360;50.104;8.074;2023-03-04T01:50:30;97791.88;;;-0.43;100.00
74708;BME280;63360;50.104;8.074;2023-03-04T01:52:57;97785.53;;;-0.40;100.00
74708;BME280;63360;50.104;8.074;2023-03-04T01:55:24;97769.19;;;-0.39;100.00
74708;BME280;63360;50.104;8.074;2023-03-04T01:57:51;97777.88;;;-0.29;100.00
74708;BME280;63360;50.104;8.074;2023-03-04T02:00:27;97767.91;;;-0.19;100.00
74708;BME280;63360;50.104;8.074;2023-03-04T02:02:59;97768.44;;;-0.28;100.00
74708;BME280;63360;50.104;8.074;2023-03-04T02:05:27;97773.53;;;-0.28;100.00
74708;BME280;63360;50.104;8.074;2023-03-04T02:07:54;97741.88;;;-0.27;100.00
74708;BME280;63360;50.104;8.074;2023-03-04T02:10:22;97767.75;;;-0.24;100.00
74708;BME280;63360;50.104;8.074;2023-03-04T02:12:49;97761.53;;;-0.28;100.00
74708;BME280;63360;50.104;8.074;2023-03-04T02:15:16;97759.88;;;-0.22;100.00
74708;BME280;63360;50.104;8.074;2023-03-04T02:17:43;97742.34;;;-0.19;100.00
74708;BME280;63360;50.104;8.074;2023-03-04T02:28:35;97752.56;;;-0.07;99.05
74708;BME280;63360;50.104;8.074;2023-03-04T02:31:02;97751.13;;;-0.03;99.12
74708;BME280;63360;50.104;8.074;2023-03-04T02:33:29;97731.09;;;-0.06;99.09
74708;BME280;63360;50.104;8.074;2023-03-04T02:35:56;97739.88;;;-0.02;98.71
74708;BME280;63360;50.104;8.074;2023-03-04T02:38:22;97732.66;;;0.07;98.42
74708;BME280;63360;50.104;8.074;2023-03-04T02:40:50;97728.75;;;0.04;98.28
74708;BME280;63360;50.104;8.074;2023-03-04T02:43:18;97739.31;;;0.19;97.83
74708;BME280;63360;50.104;8.074;2023-03-04T02:45:47;97727.28;;;0.08;97.61
74708;BME280;63360;50.104;8.074;2023-03-04T02:48:17;97725.41;;;0.04;98.61
74708;BME280;63360;50.104;8.074;2023-03-04T02:50:48;97738.31;;;0.20;98.01
74708;BME280;63360;50.104;8.074;2023-03-04T02:53:17;97742.19;;;0.23;98.02
74708;BME280;63360;50.104;8.074;2023-03-04T02:55:43;97716.84;;;0.10;97.26
74708;BME280;63360;50.104;8.074;2023-03-04T02:58:11;97724.28;;;0.23;97.08
74708;BME280;63360;50.104;8.074;2023-03-04T03:00:39;97731.63;;;0.31;96.94
74708;BME280;63360;50.104;8.074;2023-03-04T03:03:06;97718.63;;;0.21;97.08
74708;BME280;63360;50.104;8.074;2023-03-04T03:05:33;97728.38;;;0.35;96.66
74708;BME280;63360;50.104;8.074;2023-03-04T03:08:00;97729.72;;;0.38;96.36
74708;BME280;63360;50.104;8.074;2023-03-04T03:10:26;97730.03;;;0.41;96.20
74708;BME280;63360;50.104;8.074;2023-03-04T03:12:52;97724.81;;;0.36;96.36
74708;BME280;63360;50.104;8.074;2023-03-04T03:15:19;97715.69;;;0.40;95.96
74708;BME280;63360;50.104;8.074;2023-03-04T03:17:45;97712.38;;;0.40;95.91
74708;BME280;63360;50.104;8.074;2023-03-04T03:20:12;97725.44;;;0.55;95.23
74708;BME280;63360;50.104;8.074;2023-03-04T03:22:39;97713.19;;;0.57;94.39
74708;BME280;63360;50.104;8.074;2023-03-04T03:25:07;97716.44;;;0.52;94.86
74708;BME280;63360;50.104;8.074;2023-03-04T03:27:34;97720.53;;;0.53;95.43
74708;BME280;63360;50.104;8.074;2023-03-04T03:30:01;97721.03;;;0.50;94.07
74708;BME280;63360;50.104;8.074;2023-03-04T03:32:28;97715.22;;;0.43;95.05
74708;BME280;63360;50.104;8.074;2023-03-04T03:34:54;97716.44;;;0.52;94.26
74708;BME280;63360;50.104;8.074;2023-03-04T03:37:21;97710.31;;;0.53;94.34
74708;BME280;63360;50.104;8.074;2023-03-04T03:39:47;97720.44;;;0.60;93.93
74708;BME280;63360;50.104;8.074;2023-03-04T03:42:13;97696.53;;;0.43;94.60
74708;BME280;63360;50.104;8.074;2023-03-04T03:44:40;97705.34;;;0.47;94.54
74708;BME280;63360;50.104;8.074;2023-03-04T03:47:06;97708.66;;;0.47;94.68
74708;BME280;63360;50.104;8.074;2023-03-04T03:49:33;97702.53;;;0.48;93.86
74708;BME280;63360;50.104;8.074;2023-03-04T03:51:59;97691.78;;;0.35;94.82
74708;BME280;63360;50.104;8.074;2023-03-04T03:54:25;97688.75;;;0.38;95.58
74708;BME280;63360;50.104;8.074;2023-03-04T03:56:52;97698.09;;;0.44;94.56
74708;BME280;63360;50.104;8.074;2023-03-04T03:59:18;97689.78;;;0.37;94.85
74708;BME280;63360;50.104;8.074;2023-03-04T04:01:45;97697.22;;;0.38;94.92
74708;BME280;63360;50.104;8.074;2023-03-04T04:04:11;97703.22;;;0.44;94.58
74708;BME280;63360;50.104;8.074;2023-03-04T04:06:37;97706.91;;;0.48;94.24
74708;BME280;63360;50.104;8.074;2023-03-04T04:09:04;97713.34;;;0.50;94.47
74708;BME280;63360;50.104;8.074;2023-03-04T04:11:30;97701.09;;;0.52;94.41
74708;BME280;63360;50.104;8.074;2023-03-04T04:13:57;97684.75;;;0.42;93.63
74708;BME280;63360;50.104;8.074;2023-03-04T04:16:23;97696.97;;;0.51;93.60
74708;BME280;63360;50.104;8.074;2023-03-04T04:18:49;97687.97;;;0.37;93.58
74708;BME280;63360;50.104;8.074;2023-03-04T04:21:16;97699.97;;;0.48;93.77
74708;BME280;63360;50.104;8.074;2023-03-04T04:23:42;97691.91;;;0.40;94.10
74708;BME280;63360;50.104;8.074;2023-03-04T04:26:09;97703.31;;;0.49;93.89
74708;BME280;63360;50.104;8.074;2023-03-04T04:28:35;97700.84;;;0.54;93.54
74708;BME280;63360;50.104;8.074;2023-03-04T04:31:01;97688.97;;;0.48;93.17
74708;BME280;63360;50.104;8.074;2023-03-04T04:33:28;97705.31;;;0.58;93.16
74708;BME280;63360;50.104;8.074;2023-03-04T04:35:54;97688.84;;;0.54;93.44
74708;BME280;63360;50.104;8.074;2023-03-04T04:38:21;97688.28;;;0.52;92.83
74708;BME280;63360;50.104;8.074;2023-03-04T04:40:47;97701.19;;;0.57;93.09
74708;BME280;63360;50.104;8.074;2023-03-04T04:43:14;97703.09;;;0.50;92.70
74708;BME280;63360;50.104;8.074;2023-03-04T04:45:40;97688.97;;;0.48;92.91
74708;BME280;63360;50.104;8.074;2023-03-04T04:48:07;97697.19;;;0.50;92.56
74708;BME280;63360;50.104;8.074;2023-03-04T04:50:34;97692.75;;;0.45;93.48
74708;BME280;63360;50.104;8.074;2023-03-04T04:53:00;97701.88;;;0.53;93.46
74708;BME280;63360;50.104;8.074;2023-03-04T04:55:27;97698.28;;;0.54;93.41
74708;BME280;63360;50.104;8.074;2023-03-04T04:57:53;97700.94;;;0.59;93.00
74708;BME280;63360;50.104;8.074;2023-03-04T05:00:20;97698.16;;;0.60;92.76
74708;BME280;63360;50.104;8.074;2023-03-04T05:02:46;97696.28;;;0.56;92.72
74708;BME280;63360;50.104;8.074;2023-03-04T05:05:13;97702.63;;;0.53;93.26
74708;BME280;63360;50.104;8.074;2023-03-04T05:07:39;97685.19;;;0.50;93.11
74708;BME280;63360;50.104;8.074;2023-03-04T05:10:06;97691.63;;;0.53;92.88
74708;BME280;63360;50.104;8.074;2023-03-04T05:12:32;97697.06;;;0.56;92.73
74708;BME280;63360;50.104;8.074;2023-03-04T05:14:59;97682.06;;;0.48;92.34
74708;BME280;63360;50.104;8.074;2023-03-04T05:17:25;97693.25;;;0.59;92.48
74708;BME280;63360;50.104;8.074;2023-03-04T05:19:51;97699.63;;;0.56;92.16
74708;BME280;63360;50.104;8.074;2023-03-04T05:22:18;97705.88;;;0.49;92.41
74708;BME280;63360;50.104;8.074;2023-03-04T05:24:44;97695.63;;;0.49;92.60
74708;BME280;63360;50.104;8.074;2023-03-04T05:27:11;97692.63;;;0.52;92.62
74708;BME280;63360;50.104;8.074;2023-03-04T05:29:37;97689.97;;;0.47;92.85
74708;BME280;63360;50.104;8.074;2023-03-04T05:32:03;97707.19;;;0.51;92.94
74708;BME280;63360;50.104;8.074;2023-03-04T05:34:30;97689.72;;;0.60;92.40
74708;BME280;63360;50.104;8.074;2023-03-04T05:36:56;97696.06;;;0.57;92.73
74708;BME280;63360;50.104;8.074;2023-03-04T05:39:22;97684.22;;;0.40;93.53
74708;BME280;63360;50.104;8.074;2023-03-04T05:41:49;97705.44;;;0.52;93.10
74708;BME280;63360;50.104;8.074;2023-03-04T05:44:15;97698.66;;;0.46;92.60
74708;BME280;63360;50.104;8.074;2023-03-04T05:46:42;97698.97;;;0.49;92.48
74708;BME280;63360;50.104;8.074;2023-03-04T05:49:08;97692.53;;;0.47;92.65
74708;BME280;63360;50.104;8.074;2023-03-04T05:51:34;97684.84;;;0.47;93.15
74708;BME280;63360;50.104;8.074;2023-03-04T05:54:01;97692.09;;;0.38;93.86
74708;BME280;63360;50.104;8.074;2023-03-04T05:56:27;97701.88;;;0.53;93.34
74708;BME280;63360;50.104;8.074;2023-03-04T05:58:56;97697.50;;;0.53;93.28
74708;BME280;63360;50.104;8.074;2023-03-04T06:01:24;97699.94;;;0.60;93.26
74708;BME280;63360;50.104;8.074;2023-03-04T06:03:51;97685.41;;;0.49;92.85
74708;BME280;63360;50.104;8.074;2023-03-04T06:06:17;97700.03;;;0.65;92.23
74708;BME280;63360;50.104;8.074;2023-03-04T06:08:44;97702.59;;;0.65;92.32
74708;BME280;63360;50.104;8.074;2023-03-04T06:11:10;97709.19;;;0.61;91.98
74708;BME280;63360;50.104;8.074;2023-03-04T06:13:37;97710.19;;;0.60;92.22
74708;BME280;63360;50.104;8.074;2023-03-04T06:16:03;97713.75;;;0.59;92.32
74708;BME280;63360;50.104;8.074;2023-03-04T06:18:30;97704.28;;;0.59;92.55
74708;BME280;63360;50.104;8.074;2023-03-04T06:20:58;97721.06;;;0.67;92.54
74708;BME280;63360;50.104;8.074;2023-03-04T06:23:25;97711.41;;;0.57;92.18
74708;BME280;63360;50.104;8.074;2023-03-04T06:25:53;97711.63;;;0.56;92.92
74708;BME280;63360;50.104;8.074;2023-03-04T06:28:20;97727.50;;;0.70;92.40
74708;BME280;63360;50.104;8.074;2023-03-04T06:30:46;97719.44;;;0.61;92.46
74708;BME280;63360;50.104;8.074;2023-03-04T06:33:13;97730.63;;;0.72;92.13
74708;BME280;63360;50.104;8.074;2023-03-04T06:35:39;97722.00;;;0.61;92.24
74708;BME280;63360;50.104;8.074;2023-03-04T06:38:06;97718.84;;;0.59;92.89
74708;BME280;63360;50.104;8.074;2023-03-04T06:40:32;97719.88;;;0.58;92.79
74708;BME280;63360;50.104;8.074;2023-03-04T06:42:59;97724.94;;;0.70;92.29
74708;BME280;63360;50.104;8.074;2023-03-04T06:45:25;97743.97;;;0.74;92.43
74708;BME280;63360;50.104;8.074;2023-03-04T06:47:52;97727.41;;;0.65;92.33
74708;BME280;63360;50.104;8.074;2023-03-04T06:50:18;97727.41;;;0.65;92.94
74708;BME280;63360;50.104;8.074;2023-03-04T06:52:44;97745.75;;;0.73;92.46
74708;BME280;63360;50.104;8.074;2023-03-04T06:55:11;97746.75;;;0.72;92.48
74708;BME280;63360;50.104;8.074;2023-03-04T06:57:38;97745.53;;;0.75;92.40
74708;BME280;63360;50.104;8.074;2023-03-04T07:00:05;97760.13;;;0.74;92.84
74708;BME280;63360;50.104;8.074;2023-03-04T07:02:31;97754.91;;;0.69;93.16
74708;BME280;63360;50.104;8.074;2023-03-04T07:04:58;97766.16;;;0.68;92.29
74708;BME280;63360;50.104;8.074;2023-03-04T07:07:24;97748.00;;;0.70;92.16
74708;BME280;63360;50.104;8.074;2023-03-04T07:09:52;97758.03;;;0.71;92.68
74708;BME280;63360;50.104;8.074;2023-03-04T07:12:18;97757.22;;;0.82;92.79
74708;BME280;63360;50.104;8.074;2023-03-04T07:14:45;97766.44;;;0.83;92.52
74708;BME280;63360;50.104;8.074;2023-03-04T07:17:11;97754.56;;;0.77;92.89
74708;BME280;63360;50.104;8.074;2023-03-04T07:19:38;97763.09;;;0.83;92.52
74708;BME280;63360;50.104;8.074;2023-03-04T07:22:04;97766.44;;;0.83;92.76
74708;BME280;63360;50.104;8.074;2023-03-04T07:24:31;97768.53;;;0.86;92.79
74708;BME280;63360;50.104;8.074;2023-03-04T07:26:57;97754.31;;;0.79;92.43
74708;BME280;63360;50.104;8.074;2023-03-04T07:29:23;97762.97;;;0.89;92.70
74708;BME280;63360;50.104;8.074;2023-03-04T07:31:50;97757.31;;;0.87;92.51
74708;BME280;63360;50.104;8.074;2023-03-04T07:34:19;97766.94;;;0.97;92.00
74708;BME280;63360;50.104;8.074;2023-03-04T07:36:45;97760.94;;;0.91;92.17
74708;BME280;63360;50.104;8.074;2023-03-04T07:39:12;97765.00;;;0.87;92.56
74708;BME280;63360;50.104;8.074;2023-03-04T07:41:39;97765.09;;;0.81;92.92
74708;BME280;63360;50.104;8.074;2023-03-04T07:44:07;97774.00;;;0.90;92.45
74708;BME280;63360;50.104;8.074;2023-03-04T07:46:34;97771.75;;;0.93;92.10
74708;BME280;63360;50.104;8.074;2023-03-04T07:49:00;97783.34;;;0.96;91.85
74708;BME280;63360;50.104;8.074;2023-03-04T07:51:27;97777.88;;;0.92;91.96
74708;BME280;63360;50.104;8.074;2023-03-04T07:53:56;97776.56;;;0.90;91.78
74708;BME280;63360;50.104;8.074;2023-03-04T07:56:25;97785.66;;;0.97;91.91
74708;BME280;63360;50.104;8.074;2023-03-04T07:58:53;97787.97;;;0.99;92.22
74708;BME280;63360;50.104;8.074;2023-03-04T08:01:22;97779.41;;;0.93;92.84
74708;BME280;63360;50.104;8.074;2023-03-04T08:03:49;97772.97;;;0.91;92.59
74708;BME280;63360;50.104;8.074;2023-03-04T08:06:18;97792.19;;;1.05;92.36
74708;BME280;63360;50.104;8.074;2023-03-04T08:08:45;97781.25;;;1.09;91.30
74708;BME280;63360;50.104;8.074;2023-03-04T08:11:18;97787.63;;;1.07;91.84
74708;BME280;63360;50.104;8.074;2023-03-04T08:13:45;97796.72;;;1.14;92.01
74708;BME280;63360;50.104;8.074;2023-03-04T08:16:13;97797.78;;;1.02;91.95
74708;BME280;63360;50.104;8.074;2023-03-04T08:18:45;97788.84;;;1.04;91.90
74708;BME280;63360;50.104;8.074;2023-03-04T08:21:14;97797.81;;;1.18;92.06
74708;BME280;63360;50.104;8.074;2023-03-04T08:23:41;97790.50;;;1.10;91.70
74708;BME280;63360;50.104;8.074;2023-03-04T08:26:10;97788.84;;;1.04;91.84
74708;BME280;63360;50.104;8.074;2023-03-04T08:28:38;97797.41;;;1.10;91.02
74708;BME280;63360;50.104;8.074;2023-03-04T08:31:05;97796.88;;;1.08;91.38
74708;BME280;63360;50.104;8.074;2023-03-04T08:33:32;97784.06;;;1.08;91.68
74708;BME280;63360;50.104;8.074;2023-03-04T08:35:58;97794.16;;;1.14;91.47
74708;BME280;63360;50.104;8.074;2023-03-04T08:38:25;97798.81;;;1.17;90.68
74708;BME280;63360;50.104;8.074;2023-03-04T08:40:54;97802.31;;;1.11;91.50
74708;BME280;63360;50.104;8.074;2023-03-04T08:43:21;97804.81;;;1.23;90.51
74708;BME280;63360;50.104;8.074;2023-03-04T08:45:48;97801.47;;;1.22;90.90
74708;BME280;63360;50.104;8.074;2023-03-04T08:48:15;97801.34;;;1.29;90.56
74708;BME280;63360;50.104;8.074;2023-03-04T08:50:43;97809.03;;;1.29;90.99
74708;BME280;63360;50.104;8.074;2023-03-04T08:53:10;97796.13;;;1.24;90.55
74708;BME280;63360;50.104;8.074;2023-03-04T08:55:38;97809.44;;;1.38;90.05
74708;BME280;63360;50.104;8.074;2023-03-04T08:58:05;97797.72;;;1.25;90.37
74708;BME280;63360;50.104;8.074;2023-03-04T09:00:33;97788.38;;;1.19;90.41
74708;BME280;63360;50.104;8.074;2023-03-04T09:02:59;97808.13;;;1.35;90.41
74708;BME280;63360;50.104;8.074;2023-03-04T09:05:26;97811.34;;;1.31;89.27
74708;BME280;63360;50.104;8.074;2023-03-04T09:07:52;97804.78;;;1.35;89.06
74708;BME280;63360;50.104;8.074;2023-03-04T09:10:19;97801.69;;;1.33;89.40
74708;BME280;63360;50.104;8.074;2023-03-04T09:12:45;97797.25;;;1.45;88.79
74708;BME280;63360;50.104;8.074;2023-03-04T09:15:12;97810.53;;;1.42;89.07
74708;BME280;63360;50.104;8.074;2023-03-04T09:17:39;97813.34;;;1.40;89.73
74708;BME280;63360;50.104;8.074;2023-03-04T09:20:07;97817.06;;;1.49;88.61
74708;BME280;63360;50.104;8.074;2023-03-04T09:22:36;97810.69;;;1.52;88.66
74708;BME280;63360;50.104;8.074;2023-03-04T09:25:03;97811.34;;;1.59;88.08
74708;BME280;63360;50.104;8.074;2023-03-04T09:27:30;97801.06;;;1.42;89.23
74708;BME280;63360;50.104;8.074;2023-03-04T09:29:57;97806.16;;;1.54;89.43
74708;BME280;63360;50.104;8.074;2023-03-04T09:32:23;97802.25;;;1.51;89.33
74708;BME280;63360;50.104;8.074;2023-03-04T09:34:50;97807.47;;;1.56;89.65
74708;BME280;63360;50.104;8.074;2023-03-04T09:37:16;97809.50;;;1.54;89.46
74708;BME280;63360;50.104;8.074;2023-03-04T09:39:42;97801.88;;;1.59;89.20
74708;BME280;63360;50.104;8.074;2023-03-04T09:42:16;97796.75;;;1.59;88.56
74708;BME280;63360;50.104;8.074;2023-03-04T09:44:47;97799.59;;;1.63;88.42
74708;BME280;63360;50.104;8.074;2023-03-04T09:47:15;97808.88;;;1.64;89.00
74708;BME280;63360;50.104;8.074;2023-03-04T09:49:52;97794.66;;;1.56;89.05
74708;BME280;63360;50.104;8.074;2023-03-04T09:57:59;97799.47;;;1.69;88.90
74708;BME280;63360;50.104;8.074;2023-03-04T10:00:38;97806.78;;;1.77;89.10
74708;BME280;63360;50.104;8.074;2023-03-04T10:10:50;97811.28;;;1.70;89.32
74708;BME280;63360;50.104;8.074;2023-03-04T10:13:25;97808.94;;;1.69;89.15
74708;BME280;63360;50.104;8.074;2023-03-04T10:15:58;97802.13;;;1.74;89.38
74708;BME280;63360;50.104;8.074;2023-03-04T10:18:30;97804.22;;;1.77;89.53
74708;BME280;63360;50.104;8.074;2023-03-04T10:21:18;97801.66;;;1.77;89.43
74708;BME280;63360;50.104;8.074;2023-03-04T10:23:45;97802.13;;;1.74;89.74
74708;BME280;63360;50.104;8.074;2023-03-04T10:26:16;97803.38;;;1.72;90.24
74708;BME280;63360;50.104;8.074;2023-03-04T10:28:43;97799.09;;;1.77;89.96
74708;BME280;63360;50.104;8.074;2023-03-04T10:31:30;97803.53;;;1.82;89.41
74708;BME280;63360;50.104;8.074;2023-03-04T10:33:59;97798.47;;;1.87;88.63
74708;BME280;63360;50.104;8.074;2023-03-04T10:36:46;97785.09;;;1.85;89.21
74708;BME280;63360;50.104;8.074;2023-03-04T10:39:25;97785.09;;;1.85;89.32
74708;BME280;63360;50.104;8.074;2023-03-04T10:41:58;97802.41;;;1.95;88.81
74708;BME280;63360;50.104;8.074;2023-03-04T10:44:26;97798.78;;;1.91;88.51
74708;BME280;63360;50.104;8.074;2023-03-04T10:46:54;97793.66;;;1.91;88.71
74708;BME280;63360;50.104;8.074;2023-03-04T10:49:23;97798.06;;;1.95;89.19
74708;BME280;63360;50.104;8.074;2023-03-04T10:52:00;97781.53;;;1.86;88.49
74708;BME280;63360;50.104;8.074;2023-03-04T10:57:14;97797.75;;;2.08;88.08
74708;BME280;63360;50.104;8.074;2023-03-04T10:59:55;97786.72;;;2.08;87.92
74708;BME280;63360;50.104;8.074;2023-03-04T11:02:32;97785.78;;;2.14;87.92
74708;BME280;63360;50.104;8.074;2023-03-04T11:08:01;97777.38;;;2.18;87.96
74708;BME280;63360;50.104;8.074;2023-03-04T11:10:30;97778.31;;;2.12;87.84
74708;BME280;63360;50.104;8.074;2023-03-04T11:18:46;97772.38;;;2.28;87.88
74708;BME280;63360;50.104;8.074;2023-03-04T11:21:18;97768.19;;;2.22;87.38
74708;BME280;63360;50.104;8.074;2023-03-04T11:23:56;97761.69;;;2.15;88.14
74708;BME280;63360;50.104;8.074;2023-03-04T11:26:49;97775.28;;;2.15;88.14
74708;BME280;63360;50.104;8.074;2023-03-04T11:29:24;97769.75;;;2.23;88.49
74708;BME280;63360;50.104;8.074;2023-03-04T11:34:40;97767.59;;;2.15;87.50
74708;BME280;63360;50.104;8.074;2023-03-04T11:37:28;97760.59;;;2.11;86.82
74708;BME280;63360;50.104;8.074;2023-03-04T11:40:11;97776.97;;;2.26;86.63
74708;BME280;63360;50.104;8.074;2023-03-04T11:45:20;97754.44;;;2.12;86.46
74708;BME280;63360;50.104;8.074;2023-03-04T11:50:59;97765.09;;;2.20;87.66
74708;BME280;63360;50.104;8.074;2023-03-04T11:56:38;97749.50;;;2.27;86.80
74708;BME280;63360;50.104;8.074;2023-03-04T12:05:45;97741.03;;;2.48;86.77
74708;BME280;63360;50.104;8.074;2023-03-04T12:08:22;97739.69;;;2.62;85.12
74708;BME280;63360;50.104;8.074;2023-03-04T12:11:01;97742.66;;;2.76;85.16
74708;BME280;63360;50.104;8.074;2023-03-04T12:14:01;97731.72;;;2.85;84.05
74708;BME280;63360;50.104;8.074;2023-03-04T12:22:38;97709.72;;;2.94;81.76
74708;BME280;63360;50.104;8.074;2023-03-04T12:27:55;97707.63;;;3.18;80.98
74708;BME280;63360;50.104;8.074;2023-03-04T12:30:50;97712.06;;;3.28;81.70
74708;BME280;63360;50.104;8.074;2023-03-04T12:39:12;97708.53;;;3.34;81.18
74708;BME280;63360;50.104;8.074;2023-03-04T12:41:48;97706.94;;;3.28;81.87
74708;BME280;63360;50.104;8.074;2023-03-04T12:44:19;97699.78;;;3.30;80.87
74708;BME280;63360;50.104;8.074;2023-03-04T12:47:20;97707.22;;;3.31;80.84
74708;BME280;63360;50.104;8.074;2023-03-04T12:52:57;97701.56;;;3.29;81.05
74708;BME280;63360;50.104;8.074;2023-03-04T12:55:36;97697.19;;;3.30;81.97
74708;BME280;63360;50.104;8.074;2023-03-04T12:58:03;97682.78;;;3.29;82.51
74708;BME280;63360;50.104;8.074;2023-03-04T13:03:16;97684.88;;;3.32;81.06
74708;BME280;63360;50.104;8.074;2023-03-04T13:06:01;97683.16;;;3.42;80.97
74708;BME280;63360;50.104;8.074;2023-03-04T13:08:51;97679.75;;;3.37;81.55
74708;BME280;63360;50.104;8.074;2023-03-04T13:16:44;97671.47;;;3.61;80.53
74708;BME280;63360;50.104;8.074;2023-03-04T13:25:39;97663.19;;;3.59;81.66
74708;BME280;63360;50.104;8.074;2023-03-04T13:31:06;97661.19;;;3.61;81.71
74708;BME280;63360;50.104;8.074;2023-03-04T13:36:04;97655.31;;;3.71;81.31
74708;BME280;63360;50.104;8.074;2023-03-04T13:38:36;97654.00;;;3.68;81.04
74708;BME280;63360;50.104;8.074;2023-03-04T13:43:49;97649.91;;;3.73;81.82
74708;BME280;63360;50.104;8.074;2023-03-04T14:01:59;97633.91;;;3.65;83.17
74708;BME280;63360;50.104;8.074;2023-03-04T14:04:32;97640.03;;;3.59;82.83
74708;BME280;63360;50.104;8.074;2023-03-04T14:07:01;97640.69;;;3.77;83.36
74708;BME280;63360;50.104;8.074;2023-03-04T14:09:30;97633.97;;;3.76;83.13
74708;BME280;63360;50.104;8.074;2023-03-04T14:12:02;97631.69;;;3.79;82.54
74708;BME280;63360;50.104;8.074;2023-03-04T14:14:54;97628.28;;;3.68;82.77
74708;BME280;63360;50.104;8.074;2023-03-04T14:17:29;97642.16;;;3.67;83.47
74708;BME280;63360;50.104;8.074;2023-03-04T14:19:56;97627.25;;;3.64;83.47
74708;BME280;63360;50.104;8.074;2023-03-04T14:22:29;97621.56;;;3.62;83.58
74708;BME280;63360;50.104;8.074;2023-03-04T14:25:00;97626.69;;;3.62;83.81
74708;BME280;63360;50.104;8.074;2023-03-04T14:27:29;97620.25;;;3.60;83.65
74708;BME280;63360;50.104;8.074;2023-03-04T14:30:00;97619.25;;;3.66;83.90
74708;BME280;63360;50.104;8.074;2023-03-04T14:32:28;97621.03;;;3.60;83.80
74708;BME280;63360;50.104;8.074;2023-03-04T14:35:17;97611.81;;;3.64;84.35
74708;BME280;63360;50.104;8.074;2023-03-04T14:38:03;97615.91;;;3.65;84.48
74708;BME280;63360;50.104;8.074;2023-03-04T14:40:43;97600.97;;;3.62;84.48
74708;BME280;63360;50.104;8.074;2023-03-04T14:43:15;97601.22;;;3.56;84.47
74708;BME280;63360;50.104;8.074;2023-03-04T14:45:44;97616.19;;;3.64;84.23
74708;BME280;63360;50.104;8.074;2023-03-04T14:48:19;97591.69;;;3.56;84.47
74708;BME280;63360;50.104;8.074;2023-03-04T14:50:47;97595.56;;;3.59;85.02
74708;BME280;63360;50.104;8.074;2023-03-04T14:53:20;97603.34;;;3.69;84.26
74708;BME280;63360;50.104;8.074;2023-03-04T14:58:26;97597.91;;;3.65;84.90
74708;BME280;63360;50.104;8.074;2023-03-04T15:01:29;97594.09;;;3.73;84.98
74708;BME280;63360;50.104;8.074;2023-03-04T15:04:04;97581.47;;;3.66;84.82
74708;BME280;63360;50.104;8.074;2023-03-04T15:06:35;97580.94;;;3.64;85.13